Emine Anne — TCBX9 — position and weather

sailwx.info

Track history (hours):
 
Tides and Currents Weather Stations Pressure Air Temp Water Temp Dewpoint Dewpoint Depression Visibility Wind Speed Wind Dir Waves Ship Positions

Emine Anne

Last reported at 2014-Jul-14 11:33 UTC. Time now 2014-Jul-23 07:21 UTC.
Position N 40°51' E 029°09'.
Warning: this ship's position is 8 days out of date.

Length 69 m; draft 4.3 m.

Type: Ship. MMSI: 271002305.

Date/timePositionNaut miles runAvg speedWind from/ knotsBaromVisibWave heightAir tempDewpointWater temp
2014-Jul-14 11:33N 40°51' E 029°09'3 1.3
2014-Jul-14 09:28N 40°53' E 029°12'0 0.0
2014-Jul-14 08:16N 40°53' E 029°12'0 0.1
2014-Jul-14 07:28N 40°53' E 029°12'0 0.0
2014-Jul-14 06:09N 40°53' E 029°12'  
2014-Jul-06 20:34N 44°37' E 035°58'9 9.3
2014-Jul-06 19:34N 44°34' E 035°46'13 9.2
2014-Jul-06 18:08N 44°27' E 035°30'5 9.1
2014-Jul-06 17:34N 44°25' E 035°23'9 9.1
2014-Jul-06 16:32N 44°20' E 035°12'9 8.3
2014-Jul-06 15:26N 44°17' E 034°60'8 8.8
2014-Jul-06 14:33N 44°17' E 034°49'9 8.9
2014-Jul-06 13:33N 44°17' E 034°36'9 8.8
2014-Jul-06 12:33N 44°16' E 034°24'12 9.0
2014-Jul-06 11:16N 44°16' E 034°08'  
Track history (hours):
 
Tides and Currents Weather Stations Pressure Air Temp Water Temp Dewpoint Dewpoint Depression Visibility Wind Speed Wind Dir Waves Ship Positions

Emine Anne

Last reported at 2014-Jul-14 11:33 UTC. Time now 2014-Jul-23 07:21 UTC.
Position N 40°51' E 029°09'.
Warning: this ship's position is 8 days out of date.

Length 69 m; draft 4.3 m.

Type: Ship. MMSI: 271002305.

Date/timePositionNaut miles runAvg speedWind from/ knotsBaromVisibWave heightAir tempDewpointWater temp
2014-Jul-14 11:33N 40°51' E 029°09'3 1.3
2014-Jul-14 09:28N 40°53' E 029°12'0 0.0
2014-Jul-14 08:16N 40°53' E 029°12'0 0.1
2014-Jul-14 07:28N 40°53' E 029°12'0 0.0
2014-Jul-14 06:09N 40°53' E 029°12'  
2014-Jul-06 20:34N 44°37' E 035°58'9 9.3
2014-Jul-06 19:34N 44°34' E 035°46'13 9.2
2014-Jul-06 18:08N 44°27' E 035°30'5 9.1
2014-Jul-06 17:34N 44°25' E 035°23'9 9.1
2014-Jul-06 16:32N 44°20' E 035°12'9 8.3
2014-Jul-06 15:26N 44°17' E 034°60'8 8.8
2014-Jul-06 14:33N 44°17' E 034°49'9 8.9
2014-Jul-06 13:33N 44°17' E 034°36'9 8.8
2014-Jul-06 12:33N 44°16' E 034°24'12 9.0
2014-Jul-06 11:16N 44°16' E 034°08'  

Dump ship's entire track history